METAR Data
IDs: Format: Raw Decoded Include TAF

Data at: 1340 UTC 21 Apr 2021

METAR for:KHNR (Harlan Muni, IA, US)
Text:KHNR 211335Z AUTO 36015KT 10SM BKN018 OVC025 00/M02 A3025 RMK AO2
Temperature: 0.0°C ( 32°F)
Dewpoint: -2.0°C ( 28°F) [RH = 86%]
Pressure (altimeter):30.25 inches Hg (1024.5 mb)
Winds:from the N (360 degrees) at 17 MPH (15 knots; 7.7 m/s)
Visibility:10 or more sm (16+ km)
Ceiling:1800 feet AGL
Clouds: broken clouds at 1800 feet AGL, overcast cloud deck at 2500 feet AGL
QC Flag:automated observation with no human augmentation